sensor_id;sensor_type;location;lat;lon;timestamp;temperature;humidity
12769;DHT22;6448;48.916;8.990;2022-08-11T00:00:58;27.70;27.00
12769;DHT22;6448;48.916;8.990;2022-08-11T00:01:59;27.60;27.00
12769;DHT22;6448;48.916;8.990;2022-08-11T00:03:07;27.60;27.00
12769;DHT22;6448;48.916;8.990;2022-08-11T00:04:08;27.60;27.00
12769;DHT22;6448;48.916;8.990;2022-08-11T00:05:12;27.60;27.00
12769;DHT22;6448;48.916;8.990;2022-08-11T00:06:22;27.50;27.00
12769;DHT22;6448;48.916;8.990;2022-08-11T00:07:24;27.80;27.20
12769;DHT22;6448;48.916;8.990;2022-08-11T00:08:29;27.50;27.10
12769;DHT22;6448;48.916;8.990;2022-08-11T00:09:33;27.60;27.10
12769;DHT22;6448;48.916;8.990;2022-08-11T00:10:36;27.70;27.20
12769;DHT22;6448;48.916;8.990;2022-08-11T00:11:49;27.50;27.20
12769;DHT22;6448;48.916;8.990;2022-08-11T00:12:53;27.60;27.20
12769;DHT22;6448;48.916;8.990;2022-08-11T00:13:56;27.30;27.20
12769;DHT22;6448;48.916;8.990;2022-08-11T00:14:59;27.50;27.30
12769;DHT22;6448;48.916;8.990;2022-08-11T00:16:01;27.40;27.40
12769;DHT22;6448;48.916;8.990;2022-08-11T00:17:05;27.30;27.30
12769;DHT22;6448;48.916;8.990;2022-08-11T00:18:07;27.30;27.40
12769;DHT22;6448;48.916;8.990;2022-08-11T00:19:09;27.30;27.40
12769;DHT22;6448;48.916;8.990;2022-08-11T00:20:13;27.30;27.50
12769;DHT22;6448;48.916;8.990;2022-08-11T00:21:15;27.30;27.50
12769;DHT22;6448;48.916;8.990;2022-08-11T00:22:20;27.30;27.50
12769;DHT22;6448;48.916;8.990;2022-08-11T00:23:23;27.20;27.50
12769;DHT22;6448;48.916;8.990;2022-08-11T00:24:25;27.20;27.50
12769;DHT22;6448;48.916;8.990;2022-08-11T00:25:37;27.40;27.60
12769;DHT22;6448;48.916;8.990;2022-08-11T00:26:38;27.30;27.60
12769;DHT22;6448;48.916;8.990;2022-08-11T00:27:41;27.30;27.60
12769;DHT22;6448;48.916;8.990;2022-08-11T00:28:42;27.20;27.60
12769;DHT22;6448;48.916;8.990;2022-08-11T00:29:53;27.10;27.50
12769;DHT22;6448;48.916;8.990;2022-08-11T00:30:55;27.20;28.20
12769;DHT22;6448;48.916;8.990;2022-08-11T00:32:00;27.10;27.70
12769;DHT22;6448;48.916;8.990;2022-08-11T00:33:01;27.10;27.80
12769;DHT22;6448;48.916;8.990;2022-08-11T00:34:09;27.00;27.70
12769;DHT22;6448;48.916;8.990;2022-08-11T00:35:14;27.10;27.90
12769;DHT22;6448;48.916;8.990;2022-08-11T00:36:18;27.00;27.80
12769;DHT22;6448;48.916;8.990;2022-08-11T00:37:21;27.00;27.90
12769;DHT22;6448;48.916;8.990;2022-08-11T00:38:25;27.20;28.10
12769;DHT22;6448;48.916;8.990;2022-08-11T00:39:31;26.90;28.00
12769;DHT22;6448;48.916;8.990;2022-08-11T00:40:41;27.10;28.20
12769;DHT22;6448;48.916;8.990;2022-08-11T00:41:46;26.90;28.10
12769;DHT22;6448;48.916;8.990;2022-08-11T00:42:58;27.00;28.20
12769;DHT22;6448;48.916;8.990;2022-08-11T00:45:38;26.80;28.10
12769;DHT22;6448;48.916;8.990;2022-08-11T00:46:56;26.80;28.20
12769;DHT22;6448;48.916;8.990;2022-08-11T00:48:04;26.70;28.20
12769;DHT22;6448;48.916;8.990;2022-08-11T00:49:15;26.70;28.30
12769;DHT22;6448;48.916;8.990;2022-08-11T00:50:23;26.60;28.30
12769;DHT22;6448;48.916;8.990;2022-08-11T00:51:40;26.60;28.30
12769;DHT22;6448;48.916;8.990;2022-08-11T00:53:04;26.60;28.50
12769;DHT22;6448;48.916;8.990;2022-08-11T00:56:06;26.50;28.60
12769;DHT22;6448;48.916;8.990;2022-08-11T00:57:50;26.50;28.80
12769;DHT22;6448;48.916;8.990;2022-08-11T01:01:04;26.40;28.80
12769;DHT22;6448;48.916;8.990;2022-08-11T01:02:18;26.40;28.90
12769;DHT22;6448;48.916;8.990;2022-08-11T01:03:36;26.40;29.00
12769;DHT22;6448;48.916;8.990;2022-08-11T01:05:12;26.30;28.90
12769;DHT22;6448;48.916;8.990;2022-08-11T01:06:45;26.30;29.40
12769;DHT22;6448;48.916;8.990;2022-08-11T01:08:36;26.30;29.00
12769;DHT22;6448;48.916;8.990;2022-08-11T01:09:58;26.20;29.10
12769;DHT22;6448;48.916;8.990;2022-08-11T01:13:08;26.20;29.20
12769;DHT22;6448;48.916;8.990;2022-08-11T01:14:39;26.10;29.30
12769;DHT22;6448;48.916;8.990;2022-08-11T01:16:37;26.10;29.30
12769;DHT22;6448;48.916;8.990;2022-08-11T01:19:49;26.00;29.40
12769;DHT22;6448;48.916;8.990;2022-08-11T01:21:43;26.00;29.40
12769;DHT22;6448;48.916;8.990;2022-08-11T01:23:22;26.00;29.50
12769;DHT22;6448;48.916;8.990;2022-08-11T01:32:12;25.90;29.70
12769;DHT22;6448;48.916;8.990;2022-08-11T01:35:47;25.80;29.90
12769;DHT22;6448;48.916;8.990;2022-08-11T01:37:29;25.80;30.40
12769;DHT22;6448;48.916;8.990;2022-08-11T01:39:11;25.70;29.90
12769;DHT22;6448;48.916;8.990;2022-08-11T01:40:44;25.70;30.40
12769;DHT22;6448;48.916;8.990;2022-08-11T01:44:16;25.60;30.00
12769;DHT22;6448;48.916;8.990;2022-08-11T01:45:49;25.60;30.00
12769;DHT22;6448;48.916;8.990;2022-08-11T01:47:07;25.70;30.20
12769;DHT22;6448;48.916;8.990;2022-08-11T01:48:38;25.50;30.00
12769;DHT22;6448;48.916;8.990;2022-08-11T01:49:46;25.50;30.20
12769;DHT22;6448;48.916;8.990;2022-08-11T01:51:24;25.40;30.20
12769;DHT22;6448;48.916;8.990;2022-08-11T01:52:39;25.40;30.40
12769;DHT22;6448;48.916;8.990;2022-08-11T01:53:50;25.40;30.40
12769;DHT22;6448;48.916;8.990;2022-08-11T01:55:06;25.30;30.40
12769;DHT22;6448;48.916;8.990;2022-08-11T01:57:55;25.30;30.50
12769;DHT22;6448;48.916;8.990;2022-08-11T01:59:10;25.40;30.70
12769;DHT22;6448;48.916;8.990;2022-08-11T02:00:17;25.20;30.70
12769;DHT22;6448;48.916;8.990;2022-08-11T02:01:33;25.20;30.80
12769;DHT22;6448;48.916;8.990;2022-08-11T02:02:44;25.20;30.90
12769;DHT22;6448;48.916;8.990;2022-08-11T02:03:56;25.20;30.90
12769;DHT22;6448;48.916;8.990;2022-08-11T02:05:02;25.20;30.90
12769;DHT22;6448;48.916;8.990;2022-08-11T02:06:13;25.20;30.90
12769;DHT22;6448;48.916;8.990;2022-08-11T02:07:51;25.20;31.00
12769;DHT22;6448;48.916;8.990;2022-08-11T02:09:03;25.30;31.10
12769;DHT22;6448;48.916;8.990;2022-08-11T02:10:17;25.10;31.00
12769;DHT22;6448;48.916;8.990;2022-08-11T02:11:43;25.30;31.20
12769;DHT22;6448;48.916;8.990;2022-08-11T02:12:50;25.10;31.00
12769;DHT22;6448;48.916;8.990;2022-08-11T02:13:58;25.10;31.70
12769;DHT22;6448;48.916;8.990;2022-08-11T02:15:09;25.10;31.00
12769;DHT22;6448;48.916;8.990;2022-08-11T02:16:20;25.10;31.10
12769;DHT22;6448;48.916;8.990;2022-08-11T02:17:36;25.10;31.10
12769;DHT22;6448;48.916;8.990;2022-08-11T02:18:41;25.10;31.20
12769;DHT22;6448;48.916;8.990;2022-08-11T02:20:09;25.00;31.10
12769;DHT22;6448;48.916;8.990;2022-08-11T02:21:40;25.10;31.20
12769;DHT22;6448;48.916;8.990;2022-08-11T02:23:11;25.00;31.20
12769;DHT22;6448;48.916;8.990;2022-08-11T02:24:43;25.00;31.30
12769;DHT22;6448;48.916;8.990;2022-08-11T02:25:52;25.00;31.40
12769;DHT22;6448;48.916;8.990;2022-08-11T02:27:00;24.90;31.30
12769;DHT22;6448;48.916;8.990;2022-08-11T02:28:06;24.90;31.40
12769;DHT22;6448;48.916;8.990;2022-08-11T02:29:15;24.90;31.40
12769;DHT22;6448;48.916;8.990;2022-08-11T02:30:23;24.90;31.50
12769;DHT22;6448;48.916;8.990;2022-08-11T02:31:36;24.80;31.50
12769;DHT22;6448;48.916;8.990;2022-08-11T02:33:11;24.80;31.60
12769;DHT22;6448;48.916;8.990;2022-08-11T02:34:34;24.80;31.70
12769;DHT22;6448;48.916;8.990;2022-08-11T02:35:43;24.80;32.50
12769;DHT22;6448;48.916;8.990;2022-08-11T02:36:54;24.80;31.80
12769;DHT22;6448;48.916;8.990;2022-08-11T02:38:10;24.80;31.90
12769;DHT22;6448;48.916;8.990;2022-08-11T02:39:17;24.80;31.90
12769;DHT22;6448;48.916;8.990;2022-08-11T02:40:29;24.70;31.80
12769;DHT22;6448;48.916;8.990;2022-08-11T02:41:38;24.70;31.90
12769;DHT22;6448;48.916;8.990;2022-08-11T02:43:08;24.70;31.90
12769;DHT22;6448;48.916;8.990;2022-08-11T02:44:23;24.70;32.00
12769;DHT22;6448;48.916;8.990;2022-08-11T02:45:33;24.70;32.00
12769;DHT22;6448;48.916;8.990;2022-08-11T02:46:47;24.70;32.10
12769;DHT22;6448;48.916;8.990;2022-08-11T02:47:56;24.70;32.00
12769;DHT22;6448;48.916;8.990;2022-08-11T02:49:27;24.70;32.00
12769;DHT22;6448;48.916;8.990;2022-08-11T02:51:02;24.60;32.00
12769;DHT22;6448;48.916;8.990;2022-08-11T02:52:13;24.60;32.00
12769;DHT22;6448;48.916;8.990;2022-08-11T02:53:23;24.60;32.00
12769;DHT22;6448;48.916;8.990;2022-08-11T02:54:34;24.60;32.00
12769;DHT22;6448;48.916;8.990;2022-08-11T02:55:51;24.60;31.90
12769;DHT22;6448;48.916;8.990;2022-08-11T02:56:59;24.60;31.90
12769;DHT22;6448;48.916;8.990;2022-08-11T02:58:10;24.60;32.00
12769;DHT22;6448;48.916;8.990;2022-08-11T02:59:22;24.60;31.90
12769;DHT22;6448;48.916;8.990;2022-08-11T03:00:48;24.60;31.90
12769;DHT22;6448;48.916;8.990;2022-08-11T03:01:58;24.50;31.80
12769;DHT22;6448;48.916;8.990;2022-08-11T03:03:14;24.50;31.80
12769;DHT22;6448;48.916;8.990;2022-08-11T03:04:21;24.50;31.90
12769;DHT22;6448;48.916;8.990;2022-08-11T03:05:32;24.50;31.90
12769;DHT22;6448;48.916;8.990;2022-08-11T03:06:48;24.50;31.90
12769;DHT22;6448;48.916;8.990;2022-08-11T03:08:06;24.50;31.90
12769;DHT22;6448;48.916;8.990;2022-08-11T03:09:19;24.50;32.00
12769;DHT22;6448;48.916;8.990;2022-08-11T03:10:35;24.50;32.00
12769;DHT22;6448;48.916;8.990;2022-08-11T03:11:52;24.50;32.00
12769;DHT22;6448;48.916;8.990;2022-08-11T03:13:17;24.50;32.10
12769;DHT22;6448;48.916;8.990;2022-08-11T03:14:48;24.50;32.10
12769;DHT22;6448;48.916;8.990;2022-08-11T03:16:14;24.40;32.20
12769;DHT22;6448;48.916;8.990;2022-08-11T03:17:39;24.40;32.30
12769;DHT22;6448;48.916;8.990;2022-08-11T03:18:50;24.40;32.30
12769;DHT22;6448;48.916;8.990;2022-08-11T03:20:05;24.40;32.40
12769;DHT22;6448;48.916;8.990;2022-08-11T03:21:20;24.40;32.40
12769;DHT22;6448;48.916;8.990;2022-08-11T03:22:23;24.40;32.50
12769;DHT22;6448;48.916;8.990;2022-08-11T03:23:29;24.30;32.50
12769;DHT22;6448;48.916;8.990;2022-08-11T03:24:45;24.30;32.50
12769;DHT22;6448;48.916;8.990;2022-08-11T03:25:53;24.30;32.40
12769;DHT22;6448;48.916;8.990;2022-08-11T03:27:04;24.30;32.50
12769;DHT22;6448;48.916;8.990;2022-08-11T03:28:20;24.30;32.60
12769;DHT22;6448;48.916;8.990;2022-08-11T03:29:30;24.30;32.60
12769;DHT22;6448;48.916;8.990;2022-08-11T03:30:41;24.30;32.60
12769;DHT22;6448;48.916;8.990;2022-08-11T03:31:48;24.30;32.60
12769;DHT22;6448;48.916;8.990;2022-08-11T03:33:07;24.30;32.70
12769;DHT22;6448;48.916;8.990;2022-08-11T03:34:31;24.30;32.70
12769;DHT22;6448;48.916;8.990;2022-08-11T03:35:41;24.30;32.70
12769;DHT22;6448;48.916;8.990;2022-08-11T03:37:23;24.30;32.80
12769;DHT22;6448;48.916;8.990;2022-08-11T03:39:00;24.20;32.80
12769;DHT22;6448;48.916;8.990;2022-08-11T03:40:15;24.20;32.80
12769;DHT22;6448;48.916;8.990;2022-08-11T03:41:44;24.20;32.90
12769;DHT22;6448;48.916;8.990;2022-08-11T03:42:52;24.10;32.90
12769;DHT22;6448;48.916;8.990;2022-08-11T03:44:03;24.20;33.00
12769;DHT22;6448;48.916;8.990;2022-08-11T03:45:19;24.10;33.00
12769;DHT22;6448;48.916;8.990;2022-08-11T03:46:31;24.10;32.90
12769;DHT22;6448;48.916;8.990;2022-08-11T03:48:07;24.10;32.90
12769;DHT22;6448;48.916;8.990;2022-08-11T03:49:26;24.10;33.00
12769;DHT22;6448;48.916;8.990;2022-08-11T03:50:46;24.10;33.00
12769;DHT22;6448;48.916;8.990;2022-08-11T03:51:52;24.10;33.00
12769;DHT22;6448;48.916;8.990;2022-08-11T03:53:04;24.10;33.00
12769;DHT22;6448;48.916;8.990;2022-08-11T03:54:13;24.10;33.00
12769;DHT22;6448;48.916;8.990;2022-08-11T03:55:29;24.00;33.00
12769;DHT22;6448;48.916;8.990;2022-08-11T03:57:00;24.00;33.10
12769;DHT22;6448;48.916;8.990;2022-08-11T03:58:35;24.00;33.20
12769;DHT22;6448;48.916;8.990;2022-08-11T04:00:09;24.00;33.20
12769;DHT22;6448;48.916;8.990;2022-08-11T04:01:36;24.00;33.20
12769;DHT22;6448;48.916;8.990;2022-08-11T04:03:07;23.90;33.20
12769;DHT22;6448;48.916;8.990;2022-08-11T04:06:32;23.90;33.30
12769;DHT22;6448;48.916;8.990;2022-08-11T04:08:02;23.90;33.30
12769;DHT22;6448;48.916;8.990;2022-08-11T04:09:37;23.90;33.40
12769;DHT22;6448;48.916;8.990;2022-08-11T04:11:10;23.80;33.40
12769;DHT22;6448;48.916;8.990;2022-08-11T04:16:15;23.80;33.50
12769;DHT22;6448;48.916;8.990;2022-08-11T04:18:00;23.80;33.50
12769;DHT22;6448;48.916;8.990;2022-08-11T04:19:38;23.80;33.60
12769;DHT22;6448;48.916;8.990;2022-08-11T04:21:07;23.70;33.60
12769;DHT22;6448;48.916;8.990;2022-08-11T04:22:41;23.70;33.70
12769;DHT22;6448;48.916;8.990;2022-08-11T04:25:28;23.70;33.80
12769;DHT22;6448;48.916;8.990;2022-08-11T04:26:55;23.90;33.90
12769;DHT22;6448;48.916;8.990;2022-08-11T04:28:35;23.70;33.80
12769;DHT22;6448;48.916;8.990;2022-08-11T04:29:55;23.70;33.80
12769;DHT22;6448;48.916;8.990;2022-08-11T04:31:07;23.70;33.90
12769;DHT22;6448;48.916;8.990;2022-08-11T04:32:30;23.70;33.90
12769;DHT22;6448;48.916;8.990;2022-08-11T04:33:53;23.70;34.00
12769;DHT22;6448;48.916;8.990;2022-08-11T04:35:14;23.70;33.90
12769;DHT22;6448;48.916;8.990;2022-08-11T04:36:36;23.60;34.00
12769;DHT22;6448;48.916;8.990;2022-08-11T04:38:17;23.60;34.00
12769;DHT22;6448;48.916;8.990;2022-08-11T04:39:38;23.60;34.10
12769;DHT22;6448;48.916;8.990;2022-08-11T04:40:53;23.60;34.10
12769;DHT22;6448;48.916;8.990;2022-08-11T04:44:41;23.60;34.20
12769;DHT22;6448;48.916;8.990;2022-08-11T04:46:11;23.60;34.20
12769;DHT22;6448;48.916;8.990;2022-08-11T04:49:24;23.60;34.40
12769;DHT22;6448;48.916;8.990;2022-08-11T04:51:07;23.60;34.50
12769;DHT22;6448;48.916;8.990;2022-08-11T04:53:06;23.60;34.50
12769;DHT22;6448;48.916;8.990;2022-08-11T04:54:40;23.50;34.60
12769;DHT22;6448;48.916;8.990;2022-08-11T04:56:05;23.50;34.70
12769;DHT22;6448;48.916;8.990;2022-08-11T04:57:36;23.50;34.70
12769;DHT22;6448;48.916;8.990;2022-08-11T04:59:27;23.50;34.80
12769;DHT22;6448;48.916;8.990;2022-08-11T05:00:54;23.50;34.90
12769;DHT22;6448;48.916;8.990;2022-08-11T05:02:54;23.50;35.00
12769;DHT22;6448;48.916;8.990;2022-08-11T05:04:35;23.50;35.10
12769;DHT22;6448;48.916;8.990;2022-08-11T05:06:28;23.50;35.10
12769;DHT22;6448;48.916;8.990;2022-08-11T05:09:22;23.50;35.30
12769;DHT22;6448;48.916;8.990;2022-08-11T05:10:43;23.50;35.30
12769;DHT22;6448;48.916;8.990;2022-08-11T05:12:20;23.40;35.40
12769;DHT22;6448;48.916;8.990;2022-08-11T05:13:29;23.50;35.50
12769;DHT22;6448;48.916;8.990;2022-08-11T05:14:51;23.50;35.50
12769;DHT22;6448;48.916;8.990;2022-08-11T05:16:14;23.50;35.40
12769;DHT22;6448;48.916;8.990;2022-08-11T05:17:37;23.50;35.40
12769;DHT22;6448;48.916;8.990;2022-08-11T05:18:58;23.50;35.40
12769;DHT22;6448;48.916;8.990;2022-08-11T05:20:20;23.50;35.40
12769;DHT22;6448;48.916;8.990;2022-08-11T05:21:43;23.50;35.40
12769;DHT22;6448;48.916;8.990;2022-08-11T05:23:05;23.50;35.50
12769;DHT22;6448;48.916;8.990;2022-08-11T05:24:31;23.40;35.40
12769;DHT22;6448;48.916;8.990;2022-08-11T05:25:56;23.50;35.50
12769;DHT22;6448;48.916;8.990;2022-08-11T05:27:16;23.50;35.50
12769;DHT22;6448;48.916;8.990;2022-08-11T05:28:41;23.40;35.50
12769;DHT22;6448;48.916;8.990;2022-08-11T05:30:04;23.50;35.50
12769;DHT22;6448;48.916;8.990;2022-08-11T05:31:31;23.50;35.50
12769;DHT22;6448;48.916;8.990;2022-08-11T05:32:58;23.40;35.60
12769;DHT22;6448;48.916;8.990;2022-08-11T05:34:21;23.50;35.60
12769;DHT22;6448;48.916;8.990;2022-08-11T05:35:44;23.50;35.60
12769;DHT22;6448;48.916;8.990;2022-08-11T05:36:48;23.50;35.60
12769;DHT22;6448;48.916;8.990;2022-08-11T05:37:50;23.50;35.60
12769;DHT22;6448;48.916;8.990;2022-08-11T05:39:14;23.50;35.60
12769;DHT22;6448;48.916;8.990;2022-08-11T05:40:34;23.60;35.60
12769;DHT22;6448;48.916;8.990;2022-08-11T05:41:56;23.50;35.70
12769;DHT22;6448;48.916;8.990;2022-08-11T05:43:16;23.50;35.70
12769;DHT22;6448;48.916;8.990;2022-08-11T05:44:37;23.50;35.70
12769;DHT22;6448;48.916;8.990;2022-08-11T05:45:59;23.50;35.70
12769;DHT22;6448;48.916;8.990;2022-08-11T05:47:23;23.50;35.60
12769;DHT22;6448;48.916;8.990;2022-08-11T05:48:43;23.50;35.70
12769;DHT22;6448;48.916;8.990;2022-08-11T05:50:07;23.50;35.70
12769;DHT22;6448;48.916;8.990;2022-08-11T05:51:33;23.50;35.70
12769;DHT22;6448;48.916;8.990;2022-08-11T05:52:52;23.50;35.70
12769;DHT22;6448;48.916;8.990;2022-08-11T05:54:15;23.70;35.90
12769;DHT22;6448;48.916;8.990;2022-08-11T05:55:38;23.60;35.80
12769;DHT22;6448;48.916;8.990;2022-08-11T05:56:58;23.60;35.90
12769;DHT22;6448;48.916;8.990;2022-08-11T05:58:03;23.60;35.90
12769;DHT22;6448;48.916;8.990;2022-08-11T05:59:11;23.60;35.80
12769;DHT22;6448;48.916;8.990;2022-08-11T06:00:15;23.60;35.80
12769;DHT22;6448;48.916;8.990;2022-08-11T06:01:22;23.70;35.80
12769;DHT22;6448;48.916;8.990;2022-08-11T06:02:24;23.70;35.80
12769;DHT22;6448;48.916;8.990;2022-08-11T06:03:28;23.70;35.80
12769;DHT22;6448;48.916;8.990;2022-08-11T06:04:31;23.70;35.80
12769;DHT22;6448;48.916;8.990;2022-08-11T06:05:34;23.70;35.80
12769;DHT22;6448;48.916;8.990;2022-08-11T06:06:37;23.70;35.90
12769;DHT22;6448;48.916;8.990;2022-08-11T06:07:40;23.80;36.00
12769;DHT22;6448;48.916;8.990;2022-08-11T06:08:42;23.70;36.00
12769;DHT22;6448;48.916;8.990;2022-08-11T06:09:47;23.70;36.00
12769;DHT22;6448;48.916;8.990;2022-08-11T06:10:50;23.80;36.00
12769;DHT22;6448;48.916;8.990;2022-08-11T06:11:51;23.70;36.00
12769;DHT22;6448;48.916;8.990;2022-08-11T06:12:54;23.80;36.10
12769;DHT22;6448;48.916;8.990;2022-08-11T06:13:57;23.80;36.00
12769;DHT22;6448;48.916;8.990;2022-08-11T06:15:03;23.80;36.10
12769;DHT22;6448;48.916;8.990;2022-08-11T06:16:07;23.80;36.10
12769;DHT22;6448;48.916;8.990;2022-08-11T06:17:09;23.80;36.30
12769;DHT22;6448;48.916;8.990;2022-08-11T06:18:12;23.80;36.30
12769;DHT22;6448;48.916;8.990;2022-08-11T06:19:13;23.90;36.40
12769;DHT22;6448;48.916;8.990;2022-08-11T06:20:16;23.80;36.40
12769;DHT22;6448;48.916;8.990;2022-08-11T06:21:20;23.80;36.50
12769;DHT22;6448;48.916;8.990;2022-08-11T06:22:21;23.90;36.50
12769;DHT22;6448;48.916;8.990;2022-08-11T06:23:29;23.90;36.50
12769;DHT22;6448;48.916;8.990;2022-08-11T06:24:32;23.90;36.60
12769;DHT22;6448;48.916;8.990;2022-08-11T06:25:36;23.90;36.60
12769;DHT22;6448;48.916;8.990;2022-08-11T06:26:37;23.80;36.70
12769;DHT22;6448;48.916;8.990;2022-08-11T06:27:43;23.90;36.70
12769;DHT22;6448;48.916;8.990;2022-08-11T06:28:46;23.90;36.70
12769;DHT22;6448;48.916;8.990;2022-08-11T06:29:49;23.90;36.60
12769;DHT22;6448;48.916;8.990;2022-08-11T06:30:52;23.90;36.50
12769;DHT22;6448;48.916;8.990;2022-08-11T06:31:56;24.00;36.50
12769;DHT22;6448;48.916;8.990;2022-08-11T06:32:59;24.00;36.50
12769;DHT22;6448;48.916;8.990;2022-08-11T06:34:10;23.80;36.40
12769;DHT22;6448;48.916;8.990;2022-08-11T06:35:19;24.00;36.50
12769;DHT22;6448;48.916;8.990;2022-08-11T06:36:26;24.00;36.50
12769;DHT22;6448;48.916;8.990;2022-08-11T06:37:39;24.10;36.60
12769;DHT22;6448;48.916;8.990;2022-08-11T06:38:55;24.10;36.60
12769;DHT22;6448;48.916;8.990;2022-08-11T06:40:06;24.10;36.60
12769;DHT22;6448;48.916;8.990;2022-08-11T06:41:17;24.10;36.60
12769;DHT22;6448;48.916;8.990;2022-08-11T06:42:39;24.10;36.50
12769;DHT22;6448;48.916;8.990;2022-08-11T06:43:48;24.20;36.50
12769;DHT22;6448;48.916;8.990;2022-08-11T06:44:57;24.10;36.40
12769;DHT22;6448;48.916;8.990;2022-08-11T06:46:07;24.20;36.50
12769;DHT22;6448;48.916;8.990;2022-08-11T06:47:12;24.20;36.50
12769;DHT22;6448;48.916;8.990;2022-08-11T06:48:17;24.20;36.50
12769;DHT22;6448;48.916;8.990;2022-08-11T06:49:21;24.30;36.60
12769;DHT22;6448;48.916;8.990;2022-08-11T06:50:48;24.20;36.60
12769;DHT22;6448;48.916;8.990;2022-08-11T06:52:10;24.30;36.50
12769;DHT22;6448;48.916;8.990;2022-08-11T06:53:17;24.30;36.40
12769;DHT22;6448;48.916;8.990;2022-08-11T06:54:20;24.30;36.40
12769;DHT22;6448;48.916;8.990;2022-08-11T06:55:23;24.30;36.30
12769;DHT22;6448;48.916;8.990;2022-08-11T06:56:40;24.30;36.30
12769;DHT22;6448;48.916;8.990;2022-08-11T06:58:00;24.30;36.20
12769;DHT22;6448;48.916;8.990;2022-08-11T06:59:21;24.30;36.20
12769;DHT22;6448;48.916;8.990;2022-08-11T07:00:41;24.30;36.20
12769;DHT22;6448;48.916;8.990;2022-08-11T07:01:54;24.40;36.90
12769;DHT22;6448;48.916;8.990;2022-08-11T07:03:05;24.40;36.20
12769;DHT22;6448;48.916;8.990;2022-08-11T07:04:09;24.40;36.20
12769;DHT22;6448;48.916;8.990;2022-08-11T07:05:15;24.40;36.20
12769;DHT22;6448;48.916;8.990;2022-08-11T07:06:32;24.40;36.20
12769;DHT22;6448;48.916;8.990;2022-08-11T07:10:00;24.50;36.40
12769;DHT22;6448;48.916;8.990;2022-08-11T07:13:27;24.50;36.20
12769;DHT22;6448;48.916;8.990;2022-08-11T07:14:51;24.50;36.20
12769;DHT22;6448;48.916;8.990;2022-08-11T07:16:14;24.50;36.10
12769;DHT22;6448;48.916;8.990;2022-08-11T07:17:25;24.60;36.10
12769;DHT22;6448;48.916;8.990;2022-08-11T07:18:38;24.60;36.00
12769;DHT22;6448;48.916;8.990;2022-08-11T07:20:00;24.60;35.90
12769;DHT22;6448;48.916;8.990;2022-08-11T07:21:28;24.60;36.60
12769;DHT22;6448;48.916;8.990;2022-08-11T07:25:13;24.60;35.80
12769;DHT22;6448;48.916;8.990;2022-08-11T07:27:57;24.70;35.80
12769;DHT22;6448;48.916;8.990;2022-08-11T07:29:32;24.80;35.90
12769;DHT22;6448;48.916;8.990;2022-08-11T07:30:53;24.70;35.80
12769;DHT22;6448;48.916;8.990;2022-08-11T07:32:31;24.80;35.80
12769;DHT22;6448;48.916;8.990;2022-08-11T07:33:43;24.80;35.70
12769;DHT22;6448;48.916;8.990;2022-08-11T07:34:50;24.90;35.70
12769;DHT22;6448;48.916;8.990;2022-08-11T07:36:11;24.90;35.70
12769;DHT22;6448;48.916;8.990;2022-08-11T07:37:16;24.90;35.80
12769;DHT22;6448;48.916;8.990;2022-08-11T07:38:23;24.90;35.90
12769;DHT22;6448;48.916;8.990;2022-08-11T07:39:57;24.90;35.90
12769;DHT22;6448;48.916;8.990;2022-08-11T07:41:15;25.10;36.00
12769;DHT22;6448;48.916;8.990;2022-08-11T07:42:53;25.00;36.00
12769;DHT22;6448;48.916;8.990;2022-08-11T07:44:04;25.10;36.00
12769;DHT22;6448;48.916;8.990;2022-08-11T07:45:14;25.00;36.00
12769;DHT22;6448;48.916;8.990;2022-08-11T07:46:35;25.10;36.00
12769;DHT22;6448;48.916;8.990;2022-08-11T07:48:19;25.10;35.90
12769;DHT22;6448;48.916;8.990;2022-08-11T07:49:44;25.30;35.80
12769;DHT22;6448;48.916;8.990;2022-08-11T07:51:07;25.10;35.70
12769;DHT22;6448;48.916;8.990;2022-08-11T07:53:06;25.10;35.70
12769;DHT22;6448;48.916;8.990;2022-08-11T07:54:09;25.20;36.10
12769;DHT22;6448;48.916;8.990;2022-08-11T07:55:17;25.20;35.70
12769;DHT22;6448;48.916;8.990;2022-08-11T07:56:28;25.30;35.80
12769;DHT22;6448;48.916;8.990;2022-08-11T07:57:31;25.10;35.60
12769;DHT22;6448;48.916;8.990;2022-08-11T07:58:59;25.20;35.70
12769;DHT22;6448;48.916;8.990;2022-08-11T08:00:19;25.30;35.70
12769;DHT22;6448;48.916;8.990;2022-08-11T08:01:38;25.40;35.80
12769;DHT22;6448;48.916;8.990;2022-08-11T08:03:00;25.40;35.70
12769;DHT22;6448;48.916;8.990;2022-08-11T08:04:20;25.60;35.80
12769;DHT22;6448;48.916;8.990;2022-08-11T08:05:40;25.40;35.80
12769;DHT22;6448;48.916;8.990;2022-08-11T08:07:02;25.50;35.80
12769;DHT22;6448;48.916;8.990;2022-08-11T08:08:22;25.50;35.70
12769;DHT22;6448;48.916;8.990;2022-08-11T08:09:43;25.50;35.60
12769;DHT22;6448;48.916;8.990;2022-08-11T08:11:03;25.50;35.50
12769;DHT22;6448;48.916;8.990;2022-08-11T08:12:24;25.50;36.10
12769;DHT22;6448;48.916;8.990;2022-08-11T08:13:44;25.60;35.50
12769;DHT22;6448;48.916;8.990;2022-08-11T08:15:06;25.60;35.60
12769;DHT22;6448;48.916;8.990;2022-08-11T08:16:26;25.60;35.50
12769;DHT22;6448;48.916;8.990;2022-08-11T08:17:47;25.70;35.60
12769;DHT22;6448;48.916;8.990;2022-08-11T08:18:50;25.70;35.50
12769;DHT22;6448;48.916;8.990;2022-08-11T08:19:52;25.70;35.40
12769;DHT22;6448;48.916;8.990;2022-08-11T08:20:57;25.90;35.40
12769;DHT22;6448;48.916;8.990;2022-08-11T08:22:14;25.80;35.30
12769;DHT22;6448;48.916;8.990;2022-08-11T08:23:19;25.80;35.30
12769;DHT22;6448;48.916;8.990;2022-08-11T08:24:33;25.90;35.30
12769;DHT22;6448;48.916;8.990;2022-08-11T08:25:35;25.90;35.20
12769;DHT22;6448;48.916;8.990;2022-08-11T08:26:39;26.00;35.20
12769;DHT22;6448;48.916;8.990;2022-08-11T08:28:31;25.90;35.10
12769;DHT22;6448;48.916;8.990;2022-08-11T08:30:12;26.00;35.10
12769;DHT22;6448;48.916;8.990;2022-08-11T08:31:35;26.10;34.90
12769;DHT22;6448;48.916;8.990;2022-08-11T08:32:38;26.10;34.80
12769;DHT22;6448;48.916;8.990;2022-08-11T08:33:40;26.20;34.90
12769;DHT22;6448;48.916;8.990;2022-08-11T08:34:53;26.20;34.90
12769;DHT22;6448;48.916;8.990;2022-08-11T08:36:01;26.30;34.90
12769;DHT22;6448;48.916;8.990;2022-08-11T08:37:18;26.40;34.80
12769;DHT22;6448;48.916;8.990;2022-08-11T08:38:22;26.30;34.50
12769;DHT22;6448;48.916;8.990;2022-08-11T08:39:24;26.40;34.50
12769;DHT22;6448;48.916;8.990;2022-08-11T08:40:29;26.40;34.40
12769;DHT22;6448;48.916;8.990;2022-08-11T08:41:34;26.40;34.50
12769;DHT22;6448;48.916;8.990;2022-08-11T08:42:38;26.50;34.40
12769;DHT22;6448;48.916;8.990;2022-08-11T08:43:44;26.50;34.40
12769;DHT22;6448;48.916;8.990;2022-08-11T08:44:56;26.70;34.60
12769;DHT22;6448;48.916;8.990;2022-08-11T08:46:01;26.60;34.40
12769;DHT22;6448;48.916;8.990;2022-08-11T08:47:13;26.60;34.40
12769;DHT22;6448;48.916;8.990;2022-08-11T08:48:16;26.70;34.20
12769;DHT22;6448;48.916;8.990;2022-08-11T08:49:36;26.50;34.10
12769;DHT22;6448;48.916;8.990;2022-08-11T08:50:47;26.60;33.90
12769;DHT22;6448;48.916;8.990;2022-08-11T08:52:21;26.70;33.90
12769;DHT22;6448;48.916;8.990;2022-08-11T08:53:25;26.60;33.80
12769;DHT22;6448;48.916;8.990;2022-08-11T08:54:42;26.90;34.00